Time;durP1;ratioP1;P1;durP2;ratioP2;P2;SDS_P1;SDS_P2;PMS_P1;PMS_P2;Temp;Humidity;BMP_temperature;BMP_pressure;BME280_temperature;BME280_humidity;BME280_pressure;Samples;Min_cycle;Max_cycle;Signal;HPM_P1;HPM_P2
2022/07/26 00:02:15;;;;;;;20.70;3.65;;;20.30;95.80;;;;;;5051218;28;20140;-42
2022/07/26 00:04:42;;;;;;;12.13;3.55;;;20.20;96.10;;;;;;5052197;28;20387;-43
2022/07/26 00:07:09;;;;;;;18.00;3.75;;;20.20;96.20;;;;;;5045968;28;20048;-42
2022/07/26 00:09:37;;;;;;;17.73;3.90;;;20.20;96.40;;;;;;5058131;28;20125;-43
2022/07/26 00:12:04;;;;;;;18.10;3.85;;;20.20;96.60;;;;;;5051656;28;20080;-42
2022/07/26 00:14:31;;;;;;;17.67;3.28;;;20.10;96.60;;;;;;5061472;28;20041;-42
2022/07/26 00:16:57;;;;;;;15.75;3.78;;;20.10;96.60;;;;;;5071293;28;20080;-42
2022/07/26 00:19:24;;;;;;;15.20;3.13;;;20.10;96.60;;;;;;5072044;28;20484;-42
2022/07/26 00:22:32;;;;;;;16.92;3.22;;;20.10;96.70;;;;;;5054282;28;20500;-42
2022/07/26 00:24:39;;;;;;;12.10;2.85;;;20.00;96.70;;;;;;5039454;28;20487;-43
2022/07/26 00:27:06;;;;;;;17.67;3.38;;;20.10;96.40;;;;;;5056001;28;20059;-42
2022/07/26 00:29:33;;;;;;;19.75;3.13;;;20.10;96.60;;;;;;5049819;28;20048;-42
2022/07/26 00:32:00;;;;;;;15.75;3.53;;;20.00;96.60;;;;;;5048241;28;20053;-42
2022/07/26 00:34:26;;;;;;;20.50;3.90;;;20.00;96.40;;;;;;5041238;28;20520;-42
2022/07/26 00:36:53;;;;;;;17.67;3.55;;;20.00;96.60;;;;;;5068901;28;20044;-44
2022/07/26 00:39:20;;;;;;;14.82;3.50;;;20.00;96.80;;;;;;5050901;28;20139;-43
2022/07/26 00:41:48;;;;;;;18.77;3.33;;;20.00;96.60;;;;;;5036105;28;20059;-44
2022/07/26 00:44:15;;;;;;;21.17;3.63;;;20.00;96.90;;;;;;5041802;28;20111;-43
2022/07/26 00:46:42;;;;;;;20.65;3.90;;;19.90;97.10;;;;;;5054431;28;20076;-42
2022/07/26 00:49:09;;;;;;;17.05;3.58;;;20.00;97.20;;;;;;5053974;28;20500;-42
2022/07/26 00:51:36;;;;;;;19.58;3.53;;;19.90;97.10;;;;;;5057737;28;20477;-43
2022/07/26 00:54:03;;;;;;;16.75;3.22;;;19.90;97.10;;;;;;5054594;28;20098;-42
2022/07/26 00:56:30;;;;;;;18.70;3.65;;;19.90;97.20;;;;;;5061464;28;20121;-43
2022/07/26 00:58:58;;;;;;;19.48;3.90;;;19.90;97.50;;;;;;5055894;28;20133;-43
2022/07/26 01:01:25;;;;;;;18.77;4.00;;;19.80;97.60;;;;;;5057484;28;20441;-44
2022/07/26 01:03:52;;;;;;;17.10;3.83;;;19.80;97.70;;;;;;5069525;28;20188;-43
2022/07/26 01:06:18;;;;;;;18.27;3.47;;;19.70;97.90;;;;;;5073913;28;20464;-43
2022/07/26 01:08:45;;;;;;;16.65;3.58;;;19.70;98.00;;;;;;5072087;28;20072;-43
2022/07/26 01:11:12;;;;;;;21.23;3.83;;;19.70;98.10;;;;;;5059010;28;20057;-43
2022/07/26 01:13:46;;;;;;;17.13;3.92;;;19.70;98.20;;;;;;5069440;28;20143;-43
2022/07/26 01:16:14;;;;;;;22.67;4.38;;;19.60;98.40;;;;;;5050970;28;20080;-44
2022/07/26 01:18:40;;;;;;;20.15;3.97;;;19.60;98.50;;;;;;5060628;28;20499;-43
2022/07/26 01:21:08;;;;;;;19.48;4.05;;;19.60;98.60;;;;;;5055206;28;20083;-43
2022/07/26 01:23:36;;;;;;;15.65;2.85;;;19.60;98.60;;;;;;5053968;28;20063;-43
2022/07/26 01:26:03;;;;;;;19.25;3.58;;;19.60;98.40;;;;;;5071627;28;20041;-43
2022/07/26 01:28:29;;;;;;;13.15;2.83;;;19.50;98.30;;;;;;5060915;28;20049;-43
2022/07/26 01:30:56;;;;;;;26.25;3.80;;;19.50;98.60;;;;;;5048200;28;20549;-43
2022/07/26 01:33:26;;;;;;;21.77;4.07;;;19.50;98.80;;;;;;5051907;28;20057;-43
2022/07/26 01:35:53;;;;;;;18.98;3.30;;;19.50;98.90;;;;;;5065954;28;20037;-43
2022/07/26 01:38:20;;;;;;;17.95;3.30;;;19.50;98.80;;;;;;5071325;28;20175;-43
2022/07/26 01:40:48;;;;;;;14.07;3.20;;;19.50;98.80;;;;;;5067391;28;20124;-42
2022/07/26 01:43:15;;;;;;;21.90;4.55;;;19.50;98.70;;;;;;5072032;28;20091;-42
2022/07/26 01:45:41;;;;;;;12.88;3.33;;;19.40;98.80;;;;;;5063311;28;20086;-42
2022/07/26 01:48:08;;;;;;;16.30;3.10;;;19.40;98.80;;;;;;5053761;28;20119;-43
2022/07/26 01:50:35;;;;;;;12.32;3.00;;;19.30;99.00;;;;;;5058117;28;20127;-42
2022/07/26 01:53:02;;;;;;;15.40;3.13;;;19.30;98.90;;;;;;5044544;28;20051;-42
2022/07/26 01:55:28;;;;;;;14.32;3.33;;;19.30;99.00;;;;;;5057145;28;20141;-43
2022/07/26 01:57:56;;;;;;;14.00;3.30;;;19.30;99.00;;;;;;5068126;28;20448;-42
2022/07/26 02:00:23;;;;;;;13.68;3.70;;;19.30;98.80;;;;;;5053728;28;20439;-42
2022/07/26 02:02:50;;;;;;;16.67;3.63;;;19.30;98.90;;;;;;5054159;28;20457;-43
2022/07/26 02:05:17;;;;;;;18.67;3.10;;;19.30;98.90;;;;;;5047413;28;20051;-43
2022/07/26 02:07:43;;;;;;;12.93;3.00;;;19.30;98.90;;;;;;5044146;28;20046;-43
2022/07/26 02:10:10;;;;;;;11.45;2.78;;;19.30;98.80;;;;;;5061522;28;20077;-42
2022/07/26 02:12:37;;;;;;;13.82;2.78;;;19.30;98.40;;;;;;5051011;28;20091;-43
2022/07/26 02:15:06;;;;;;;14.73;2.97;;;19.30;98.50;;;;;;5065675;28;20076;-43
2022/07/26 02:17:33;;;;;;;10.57;2.40;;;19.30;98.60;;;;;;5040854;28;20128;-44
2022/07/26 02:20:00;;;;;;;9.65;2.50;;;19.30;98.40;;;;;;5033804;28;20057;-43
2022/07/26 02:22:26;;;;;;;12.40;2.78;;;19.30;98.40;;;;;;5033932;28;20140;-43
2022/07/26 02:24:53;;;;;;;9.95;2.45;;;19.30;98.50;;;;;;5033760;28;20544;-43
2022/07/26 02:27:20;;;;;;;13.95;2.67;;;19.30;98.30;;;;;;5033814;28;20452;-43
2022/07/26 02:29:47;;;;;;;12.20;2.92;;;19.30;98.10;;;;;;5051419;28;20132;-43
2022/07/26 02:32:15;;;;;;;8.57;2.40;;;19.30;98.10;;;;;;5066638;28;20048;-42
2022/07/26 02:34:42;;;;;;;9.32;2.38;;;19.30;98.10;;;;;;5052667;28;20124;-43
2022/07/26 02:37:08;;;;;;;14.57;2.42;;;19.30;98.10;;;;;;5060095;28;20044;-42
2022/07/26 02:39:35;;;;;;;8.90;2.40;;;19.30;98.10;;;;;;5064751;28;20136;-42
2022/07/26 02:42:02;;;;;;;9.45;2.40;;;19.40;98.30;;;;;;5052244;28;20459;-42
2022/07/26 02:44:29;;;;;;;14.65;2.40;;;19.40;98.10;;;;;;5052352;28;20203;-42
2022/07/26 02:46:56;;;;;;;7.32;1.88;;;19.30;98.00;;;;;;5069136;28;20055;-43
2022/07/26 02:49:24;;;;;;;8.95;2.47;;;19.30;98.00;;;;;;5062336;28;20041;-43
2022/07/26 02:51:51;;;;;;;8.40;2.15;;;19.30;98.40;;;;;;5053242;28;20132;-42
2022/07/26 02:54:17;;;;;;;6.65;2.00;;;19.30;98.30;;;;;;5066852;28;20044;-43
2022/07/26 02:56:44;;;;;;;8.23;2.15;;;19.30;98.40;;;;;;5064719;28;20061;-43
2022/07/26 02:59:11;;;;;;;9.60;2.47;;;19.20;98.50;;;;;;5047747;28;20583;-43
2022/07/26 03:01:38;;;;;;;7.97;2.30;;;19.20;98.70;;;;;;5062525;28;20127;-43
2022/07/26 03:04:06;;;;;;;7.43;3.03;;;19.20;98.80;;;;;;5052049;28;20056;-44
2022/07/26 03:06:34;;;;;;;6.03;2.00;;;19.20;98.80;;;;;;5037303;28;20049;-43
2022/07/26 03:09:01;;;;;;;6.10;2.42;;;19.20;98.80;;;;;;5047406;28;20140;-43
2022/07/26 03:11:28;;;;;;;8.18;2.72;;;19.20;99.10;;;;;;5062926;28;20079;-42
2022/07/26 03:13:54;;;;;;;4.45;2.10;;;19.20;98.90;;;;;;5054347;28;20078;-42
2022/07/26 03:16:21;;;;;;;6.95;2.40;;;19.20;99.00;;;;;;5071466;28;20084;-43
2022/07/26 03:18:48;;;;;;;7.85;1.88;;;19.20;99.10;;;;;;5060768;28;20132;-43
2022/07/26 03:21:14;;;;;;;6.07;2.92;;;19.20;99.00;;;;;;5057820;28;20134;-42
2022/07/26 03:23:43;;;;;;;5.13;2.47;;;19.20;99.40;;;;;;5040058;28;20443;-43
2022/07/26 03:26:09;;;;;;;9.20;2.58;;;19.10;99.60;;;;;;5063555;28;20123;-42
2022/07/26 03:28:36;;;;;;;7.28;2.25;;;19.10;99.70;;;;;;5066211;28;20095;-42
2022/07/26 03:31:03;;;;;;;10.20;2.55;;;19.10;99.90;;;;;;5052051;28;20139;-42
2022/07/26 03:33:29;;;;;;;6.57;1.92;;;19.00;99.90;;;;;;5053657;28;20049;-42
2022/07/26 03:35:56;;;;;;;8.93;2.20;;;19.00;99.90;;;;;;5056598;28;20084;-42
2022/07/26 03:38:23;;;;;;;8.00;1.85;;;19.00;99.90;;;;;;5046337;28;20045;-42
2022/07/26 03:40:51;;;;;;;8.70;2.30;;;19.00;99.90;;;;;;5048529;28;20084;-43
2022/07/26 03:43:19;;;;;;;5.78;1.95;;;19.00;99.90;;;;;;5058903;28;20076;-42
2022/07/26 03:45:45;;;;;;;4.32;1.67;;;18.90;99.90;;;;;;5068259;28;20051;-42
2022/07/26 03:48:12;;;;;;;7.22;1.73;;;18.90;99.90;;;;;;5068656;28;20072;-43
2022/07/26 03:50:39;;;;;;;9.05;1.88;;;18.90;99.90;;;;;;5064573;28;20044;-42
2022/07/26 03:53:06;;;;;;;7.40;2.10;;;18.90;99.90;;;;;;5066173;28;20074;-42
2022/07/26 03:58:18;;;;;;;8.48;2.53;;;18.80;99.90;;;;;;5041711;28;20038;-42
2022/07/26 04:00:45;;;;;;;5.80;1.70;;;18.80;99.90;;;;;;5052369;28;20041;-42
2022/07/26 04:03:12;;;;;;;14.40;2.25;;;18.80;99.90;;;;;;5055302;28;20080;-42
2022/07/26 04:05:39;;;;;;;12.20;2.28;;;18.80;99.90;;;;;;5055860;28;20084;-44
2022/07/26 04:08:05;;;;;;;7.93;1.70;;;18.80;99.90;;;;;;5036808;28;20049;-43
2022/07/26 04:10:32;;;;;;;9.50;1.98;;;18.70;99.90;;;;;;5045883;28;20120;-43
2022/07/26 04:12:59;;;;;;;9.32;2.20;;;18.70;99.90;;;;;;5075100;28;20071;-43
2022/07/26 04:15:27;;;;;;;5.28;1.92;;;18.70;99.90;;;;;;5057721;28;20095;-43
2022/07/26 04:17:54;;;;;;;5.88;1.98;;;18.70;99.90;;;;;;5053652;28;20131;-44
2022/07/26 04:20:20;;;;;;;7.55;2.13;;;18.70;99.90;;;;;;5056090;28;20084;-43
2022/07/26 04:22:47;;;;;;;9.30;1.90;;;18.70;99.90;;;;;;5056052;28;20080;-43
2022/07/26 04:25:14;;;;;;;9.77;1.90;;;18.70;99.90;;;;;;5054968;28;20080;-43
2022/07/26 04:27:41;;;;;;;6.70;1.73;;;18.70;99.90;;;;;;5056325;28;20500;-43
2022/07/26 04:30:09;;;;;;;6.35;2.20;;;18.70;99.90;;;;;;5055649;28;20128;-42
2022/07/26 04:32:37;;;;;;;9.10;2.00;;;18.70;99.90;;;;;;5053814;28;20088;-42
2022/07/26 04:35:04;;;;;;;9.77;1.75;;;18.70;99.90;;;;;;5055045;28;20080;-42
2022/07/26 04:37:33;;;;;;;10.77;2.15;;;18.70;99.90;;;;;;5059165;28;20060;-42
2022/07/26 04:40:00;;;;;;;12.00;2.15;;;18.70;99.90;;;;;;5057279;28;20080;-42
2022/07/26 04:42:26;;;;;;;7.85;1.80;;;18.70;99.90;;;;;;5072818;28;20079;-42
2022/07/26 04:44:53;;;;;;;9.73;2.08;;;18.70;99.90;;;;;;5074394;28;20086;-43
2022/07/26 04:47:20;;;;;;;14.30;2.03;;;18.70;99.90;;;;;;5068300;28;20044;-43
2022/07/26 04:49:48;;;;;;;11.18;1.92;;;18.60;99.90;;;;;;5071450;28;20075;-43
2022/07/26 04:52:15;;;;;;;6.57;1.80;;;18.70;99.90;;;;;;5073308;28;20144;-43
2022/07/26 04:54:42;;;;;;;8.10;1.85;;;18.70;99.90;;;;;;5074403;28;20135;-43
2022/07/26 04:57:08;;;;;;;8.50;1.98;;;18.70;99.90;;;;;;5069738;28;20365;-43
2022/07/26 04:59:35;;;;;;;7.57;1.60;;;18.70;99.90;;;;;;5052674;28;20051;-43
2022/07/26 05:02:02;;;;;;;10.18;1.55;;;18.70;99.90;;;;;;5054711;28;20062;-43
2022/07/26 05:04:28;;;;;;;6.05;1.63;;;18.70;99.90;;;;;;5058176;28;20084;-43
2022/07/26 05:07:01;;;;;;;8.43;1.33;;;18.70;99.90;;;;;;5053783;28;20456;-43
2022/07/26 05:09:27;;;;;;;6.35;1.60;;;18.70;99.90;;;;;;5068658;28;20131;-43
2022/07/26 05:11:54;;;;;;;8.05;1.40;;;18.70;99.90;;;;;;5050919;28;20127;-43
2022/07/26 05:14:21;;;;;;;6.45;1.73;;;18.70;99.90;;;;;;5047004;28;20048;-43
2022/07/26 05:16:48;;;;;;;10.00;1.30;;;18.70;99.90;;;;;;5075155;28;20131;-43
2022/07/26 05:19:14;;;;;;;5.85;1.70;;;18.70;99.90;;;;;;5051731;28;20068;-42
2022/07/26 05:21:41;;;;;;;15.95;1.73;;;18.70;99.90;;;;;;5060191;28;20128;-42
2022/07/26 05:24:09;;;;;;;9.52;1.63;;;18.70;99.90;;;;;;5053343;28;20071;-43
2022/07/26 05:26:36;;;;;;;9.35;1.60;;;18.80;99.90;;;;;;5065335;28;20103;-43
2022/07/26 05:29:03;;;;;;;8.85;1.40;;;18.80;99.90;;;;;;5052949;28;20438;-43
2022/07/26 05:31:30;;;;;;;10.77;1.48;;;18.80;99.80;;;;;;5071657;28;20048;-43
2022/07/26 05:33:56;;;;;;;5.35;1.20;;;18.80;99.70;;;;;;5055474;28;20129;-43
2022/07/26 05:36:23;;;;;;;5.82;1.20;;;18.80;99.60;;;;;;5040808;28;20051;-43
2022/07/26 05:38:50;;;;;;;6.13;1.10;;;18.70;99.60;;;;;;5052765;28;20437;-43
2022/07/26 05:41:18;;;;;;;5.70;1.23;;;18.70;99.60;;;;;;5055943;28;20537;-43
2022/07/26 05:43:45;;;;;;;7.18;1.20;;;18.70;99.50;;;;;;5070176;28;20127;-43
2022/07/26 05:46:12;;;;;;;4.75;0.98;;;18.60;99.70;;;;;;5054851;28;20087;-43
2022/07/26 05:48:38;;;;;;;6.40;1.00;;;18.60;99.50;;;;;;5051301;28;20042;-42
2022/07/26 05:51:05;;;;;;;7.32;1.08;;;18.60;99.50;;;;;;5052238;28;20076;-42
2022/07/26 05:53:32;;;;;;;8.82;1.15;;;18.70;99.70;;;;;;5065349;28;20131;-42
2022/07/26 05:55:59;;;;;;;5.07;1.00;;;18.60;99.70;;;;;;5064840;28;20119;-42
2022/07/26 05:58:27;;;;;;;5.57;1.00;;;18.60;99.70;;;;;;5064033;28;20075;-42
2022/07/26 06:00:53;;;;;;;6.85;1.02;;;18.70;99.70;;;;;;5051717;28;20136;-43
2022/07/26 06:03:23;;;;;;;6.75;1.27;;;18.60;99.70;;;;;;5064877;28;20117;-43
2022/07/26 06:05:50;;;;;;;7.95;1.25;;;18.70;99.90;;;;;;5056852;28;20182;-43
2022/07/26 06:08:16;;;;;;;7.78;1.25;;;18.60;99.90;;;;;;5056322;28;20048;-44
2022/07/26 06:10:43;;;;;;;6.53;1.23;;;18.60;99.90;;;;;;5054854;28;20052;-43
2022/07/26 06:13:10;;;;;;;5.85;0.90;;;18.70;99.90;;;;;;5053638;28;20079;-43
2022/07/26 06:15:38;;;;;;;6.25;1.55;;;18.60;99.70;;;;;;5053386;28;20044;-43
2022/07/26 06:18:05;;;;;;;8.80;1.10;;;18.60;99.70;;;;;;5064163;28;20127;-42
2022/07/26 06:20:32;;;;;;;5.68;0.80;;;18.60;99.50;;;;;;5050537;28;20128;-43
2022/07/26 06:22:59;;;;;;;5.22;1.05;;;18.50;99.40;;;;;;5056990;28;20706;-43
2022/07/26 06:25:25;;;;;;;8.63;1.58;;;18.50;99.40;;;;;;5033840;28;20573;-43
2022/07/26 06:27:52;;;;;;;6.60;1.10;;;18.60;99.60;;;;;;5053551;28;20456;-42
2022/07/26 06:30:19;;;;;;;5.68;0.80;;;18.60;99.40;;;;;;5051892;28;20053;-42
2022/07/26 06:32:47;;;;;;;6.78;1.17;;;18.60;99.40;;;;;;5072399;28;20238;-43
2022/07/26 06:35:14;;;;;;;5.88;0.90;;;18.60;99.30;;;;;;5050208;28;20045;-43
2022/07/26 06:37:42;;;;;;;7.72;1.10;;;18.70;99.20;;;;;;5064097;28;20128;-43
2022/07/26 06:40:09;;;;;;;9.57;1.58;;;18.70;99.10;;;;;;5067689;28;20442;-43
2022/07/26 06:42:36;;;;;;;6.80;1.13;;;18.70;99.10;;;;;;5052100;28;20541;-43
2022/07/26 06:45:04;;;;;;;6.70;1.50;;;18.80;99.00;;;;;;5069434;28;20045;-44
2022/07/26 06:47:31;;;;;;;9.77;1.30;;;18.80;98.90;;;;;;5064214;28;20433;-42
2022/07/26 06:49:59;;;;;;;6.95;1.23;;;18.90;98.70;;;;;;5070604;28;20052;-42
2022/07/26 06:52:26;;;;;;;6.63;1.00;;;19.10;98.70;;;;;;5036975;28;20120;-42
2022/07/26 06:54:52;;;;;;;6.30;0.90;;;19.10;98.50;;;;;;5069577;28;20139;-43
2022/07/26 06:57:20;;;;;;;4.50;0.90;;;19.10;98.50;;;;;;5060197;28;20047;-43
2022/07/26 06:59:47;;;;;;;7.45;1.40;;;19.10;98.50;;;;;;5067088;28;20087;-43
2022/07/26 07:02:13;;;;;;;9.38;1.20;;;19.10;98.50;;;;;;5053265;28;20395;-43
2022/07/26 07:04:40;;;;;;;4.60;0.95;;;19.10;98.50;;;;;;5057418;28;20139;-44
2022/07/26 07:07:08;;;;;;;7.82;1.17;;;19.10;98.30;;;;;;5050817;28;20472;-43
2022/07/26 07:09:35;;;;;;;9.25;1.23;;;19.20;98.10;;;;;;5051891;28;20127;-43
2022/07/26 07:12:02;;;;;;;8.05;1.25;;;19.20;98.30;;;;;;5054596;28;20079;-42
2022/07/26 07:14:29;;;;;;;5.95;1.30;;;19.20;98.10;;;;;;5059710;28;20041;-42
2022/07/26 07:16:56;;;;;;;6.20;1.10;;;19.20;98.00;;;;;;5047707;28;20447;-42
2022/07/26 07:19:22;;;;;;;5.10;0.80;;;19.30;98.00;;;;;;5050778;28;20512;-42
2022/07/26 07:21:49;;;;;;;8.13;1.42;;;19.30;97.90;;;;;;5035378;28;20430;-43
2022/07/26 07:24:17;;;;;;;5.88;1.75;;;19.40;97.60;;;;;;5071783;28;20106;-42
2022/07/26 07:26:44;;;;;;;16.70;1.50;;;19.40;97.60;;;;;;5062805;28;20434;-42
2022/07/26 07:29:13;;;;;;;9.05;1.33;;;19.50;97.50;;;;;;5050238;28;20041;-43
2022/07/26 07:31:40;;;;;;;5.72;1.00;;;19.50;97.40;;;;;;5051056;28;20045;-42
2022/07/26 07:34:07;;;;;;;5.45;0.95;;;19.60;97.00;;;;;;5050007;28;20081;-42
2022/07/26 07:36:34;;;;;;;5.50;1.33;;;19.60;96.90;;;;;;5050486;28;20084;-43
2022/07/26 07:39:00;;;;;;;9.98;1.38;;;19.60;96.80;;;;;;5049585;28;20041;-42
2022/07/26 07:41:28;;;;;;;7.35;1.08;;;19.60;96.70;;;;;;5046674;28;20134;-43
2022/07/26 07:43:55;;;;;;;10.30;1.67;;;19.60;96.60;;;;;;5049630;28;20072;-42
2022/07/26 07:46:22;;;;;;;6.07;1.10;;;19.70;96.80;;;;;;5063976;28;20080;-42
2022/07/26 07:48:49;;;;;;;7.07;1.27;;;19.70;96.40;;;;;;5071600;28;20087;-42
2022/07/26 07:51:15;;;;;;;9.07;1.27;;;19.70;96.40;;;;;;5061211;28;20485;-42
2022/07/26 07:53:42;;;;;;;3.47;0.73;;;19.60;96.60;;;;;;5069383;28;20044;-42
2022/07/26 07:56:09;;;;;;;5.55;0.82;;;19.70;96.50;;;;;;5067965;28;20080;-43
2022/07/26 07:58:37;;;;;;;3.67;0.70;;;19.70;96.50;;;;;;5065913;28;20160;-42
2022/07/26 08:01:04;;;;;;;2.22;0.60;;;19.80;96.40;;;;;;5049677;28;20473;-42
2022/07/26 08:03:30;;;;;;;4.35;1.02;;;19.90;96.60;;;;;;5067654;28;20461;-41
2022/07/26 08:05:57;;;;;;;6.72;1.10;;;20.00;95.80;;;;;;5054353;28;20076;-43
2022/07/26 08:08:24;;;;;;;8.82;1.10;;;20.00;95.50;;;;;;5051811;28;20132;-43
2022/07/26 08:10:52;;;;;;;4.88;1.10;;;19.90;95.50;;;;;;5051040;28;20041;-43
2022/07/26 08:13:19;;;;;;;7.32;1.00;;;19.90;95.40;;;;;;5057259;28;20048;-42
2022/07/26 08:15:47;;;;;;;5.65;1.08;;;20.10;95.40;;;;;;5070357;28;20123;-42
2022/07/26 08:18:13;;;;;;;4.85;1.33;;;20.20;95.10;;;;;;5071308;28;20123;-43
2022/07/26 08:20:40;;;;;;;3.45;0.80;;;20.30;94.50;;;;;;5062840;28;20444;-43
2022/07/26 08:23:07;;;;;;;6.38;0.90;;;20.30;94.10;;;;;;5059870;28;20094;-43
2022/07/26 08:25:34;;;;;;;8.13;1.30;;;20.40;93.80;;;;;;5050137;28;20040;-43
2022/07/26 08:28:00;;;;;;;7.13;1.00;;;20.60;93.60;;;;;;5068009;28;20580;-42
2022/07/26 08:30:27;;;;;;;5.28;0.70;;;20.70;93.20;;;;;;5058452;28;20049;-43
2022/07/26 08:32:55;;;;;;;6.60;0.93;;;20.80;93.30;;;;;;5052612;28;20484;-43
2022/07/26 08:35:22;;;;;;;4.57;1.10;;;20.90;93.00;;;;;;5059169;28;20060;-44
2022/07/26 08:37:49;;;;;;;4.55;1.02;;;21.00;92.80;;;;;;5055328;28;20076;-43
2022/07/26 08:40:16;;;;;;;6.45;1.17;;;21.20;92.60;;;;;;5054712;28;20407;-44
2022/07/26 08:42:49;;;;;;;7.63;1.08;;;21.30;92.40;;;;;;5042788;28;20061;-43
2022/07/26 08:45:21;;;;;;;5.47;1.00;;;21.40;91.80;;;;;;5063906;28;20457;-43
2022/07/26 08:47:48;;;;;;;5.88;1.13;;;21.40;91.30;;;;;;5068738;28;20049;-43
2022/07/26 08:50:16;;;;;;;4.25;1.00;;;21.30;91.00;;;;;;5053070;28;20129;-43
2022/07/26 08:52:42;;;;;;;7.82;1.08;;;21.20;91.10;;;;;;5062450;28;20056;-43
2022/07/26 08:55:10;;;;;;;6.07;1.10;;;21.20;91.40;;;;;;5055800;28;20080;-43
2022/07/26 08:57:36;;;;;;;10.07;1.40;;;21.10;91.40;;;;;;5051532;28;20076;-44
2022/07/26 09:00:17;;;;;;;8.30;1.30;;;21.00;91.10;;;;;;5045083;28;20140;-43
2022/07/26 09:02:44;;;;;;;8.82;1.08;;;21.00;90.70;;;;;;5068685;28;20056;-43
2022/07/26 09:05:11;;;;;;;9.20;1.33;;;20.80;90.70;;;;;;5058218;28;20140;-43
2022/07/26 09:07:39;;;;;;;4.95;1.20;;;20.80;90.60;;;;;;5062713;28;20129;-44
2022/07/26 09:10:07;;;;;;;10.43;1.48;;;20.90;90.50;;;;;;5072991;28;20476;-44
2022/07/26 09:12:34;;;;;;;6.07;1.17;;;21.00;90.30;;;;;;5067185;28;20076;-44
2022/07/26 09:15:01;;;;;;;10.20;1.63;;;21.00;90.20;;;;;;5062500;28;20045;-44
2022/07/26 09:17:38;;;;;;;5.85;1.48;;;21.00;90.10;;;;;;5070726;28;20044;-44
2022/07/26 09:20:08;;;;;;;7.35;1.25;;;21.30;90.20;;;;;;5056184;28;20055;-44
2022/07/26 09:22:34;;;;;;;11.57;1.40;;;21.50;90.10;;;;;;5054832;28;20072;-44
2022/07/26 09:25:03;;;;;;;8.63;1.63;;;21.60;89.50;;;;;;5062832;28;20506;-43
2022/07/26 09:27:34;;;;;;;8.52;1.52;;;21.70;89.70;;;;;;5065831;28;20080;-43
2022/07/26 09:30:05;;;;;;;11.07;1.60;;;21.70;89.20;;;;;;5049921;28;20047;-44
2022/07/26 09:32:32;;;;;;;10.00;1.95;;;21.70;89.70;;;;;;5052176;28;20143;-44
2022/07/26 09:35:09;;;;;;;8.45;1.55;;;21.60;90.00;;;;;;5058055;28;20135;-43
2022/07/26 09:37:37;;;;;;;13.02;1.95;;;21.60;90.00;;;;;;5053359;28;20078;-44
2022/07/26 09:40:06;;;;;;;11.20;1.75;;;21.50;88.90;;;;;;5059781;28;20154;-43
2022/07/26 09:42:33;;;;;;;4.95;1.23;;;21.60;87.60;;;;;;5052895;28;20063;-43
2022/07/26 09:45:00;;;;;;;5.93;1.13;;;21.60;86.80;;;;;;5051698;28;20136;-44
2022/07/26 09:47:35;;;;;;;5.85;1.27;;;21.70;87.00;;;;;;5037745;28;20076;-44
2022/07/26 09:50:10;;;;;;;7.45;1.50;;;21.90;86.90;;;;;;5050227;28;20048;-44
2022/07/26 09:52:37;;;;;;;6.22;1.27;;;22.10;86.50;;;;;;5049801;28;20174;-43
2022/07/26 09:55:06;;;;;;;8.77;1.40;;;22.20;86.20;;;;;;5053443;28;20127;-44
2022/07/26 09:57:34;;;;;;;13.85;1.67;;;22.30;85.60;;;;;;5051703;28;20504;-44
2022/07/26 10:00:02;;;;;;;9.30;1.33;;;22.30;86.30;;;;;;5051739;28;20053;-43
2022/07/26 10:02:29;;;;;;;10.52;1.77;;;22.30;86.30;;;;;;5068285;28;20056;-43
2022/07/26 10:04:56;;;;;;;7.28;1.50;;;22.20;85.30;;;;;;5058518;28;20487;-43
2022/07/26 10:07:23;;;;;;;12.00;1.85;;;22.10;86.00;;;;;;5072233;28;20131;-44
2022/07/26 10:09:52;;;;;;;5.55;1.67;;;22.10;86.00;;;;;;5067272;28;20036;-43
2022/07/26 10:12:20;;;;;;;8.23;2.08;;;21.90;85.60;;;;;;5059259;28;20130;-43
2022/07/26 10:14:50;;;;;;;9.32;1.67;;;21.90;86.40;;;;;;5053015;28;20049;-44
2022/07/26 10:17:46;;;;;;;11.02;1.63;;;22.00;87.80;;;;;;5060479;28;20051;-44
2022/07/26 10:20:38;;;;;;;9.57;1.90;;;22.10;86.00;;;;;;5054819;28;20450;-43
2022/07/26 10:23:04;;;;;;;;;;;22.10;85.70;;;;;;5048226;28;20049;-43
2022/07/26 10:25:45;;;;;;;11.10;2.30;;;22.00;84.90;;;;;;5059891;28;19970;-43
2022/07/26 10:28:25;;;;;;;9.60;1.80;;;21.90;84.60;;;;;;5057600;28;20487;-42
2022/07/26 10:30:52;;;;;;;8.15;1.92;;;21.90;84.60;;;;;;5045300;28;20041;-44
2022/07/26 10:33:19;;;;;;;12.80;2.20;;;21.80;85.40;;;;;;5057887;28;20057;-43
2022/07/26 10:35:46;;;;;;;10.00;1.98;;;21.70;85.60;;;;;;5049723;28;20445;-43
2022/07/26 10:38:22;;;;;;;10.15;2.17;;;21.70;85.60;;;;;;5051262;28;20552;-43
2022/07/26 10:40:55;;;;;;;9.75;2.22;;;21.70;85.20;;;;;;5055281;28;20532;-43
2022/07/26 10:43:23;;;;;;;10.30;2.17;;;21.70;85.00;;;;;;5058895;28;20139;-43
2022/07/26 10:45:53;;;;;;;13.50;2.08;;;21.70;84.40;;;;;;5067072;28;20555;-43
2022/07/26 10:48:21;;;;;;;11.88;2.42;;;21.80;84.20;;;;;;5053047;28;20081;-43
2022/07/26 10:50:49;;;;;;;6.97;1.50;;;22.00;84.20;;;;;;5051635;28;20052;-43
2022/07/26 10:53:18;;;;;;;11.50;2.17;;;22.10;83.70;;;;;;5047899;28;20124;-43
2022/07/26 10:55:45;;;;;;;11.13;1.88;;;22.30;83.80;;;;;;5044468;28;20080;-43
2022/07/26 10:58:12;;;;;;;6.18;1.58;;;22.40;81.80;;;;;;5052771;28;20037;-43
2022/07/26 11:00:40;;;;;;;9.95;1.60;;;22.50;81.60;;;;;;5052148;28;20045;-44
2022/07/26 11:03:07;;;;;;;9.38;2.00;;;22.50;79.90;;;;;;5052094;28;20056;-43
2022/07/26 11:05:34;;;;;;;12.35;2.30;;;22.70;80.00;;;;;;5063503;28;20091;-43
2022/07/26 11:08:07;;;;;;;9.57;2.08;;;22.70;79.40;;;;;;5070984;28;20044;-43
2022/07/26 11:10:35;;;;;;;9.95;2.13;;;22.70;79.50;;;;;;5073094;28;20426;-42
2022/07/26 11:13:06;;;;;;;14.23;2.10;;;22.70;79.30;;;;;;5057149;28;20129;-43
2022/07/26 11:15:33;;;;;;;14.85;2.70;;;22.70;80.30;;;;;;5050914;28;20107;-43
2022/07/26 11:18:09;;;;;;;15.80;2.08;;;22.70;80.20;;;;;;5052899;28;20741;-43
2022/07/26 11:20:36;;;;;;;14.25;2.60;;;22.70;79.90;;;;;;5071832;28;20123;-43
2022/07/26 11:23:03;;;;;;;9.40;2.08;;;22.70;80.60;;;;;;5072825;28;20131;-43
2022/07/26 11:25:29;;;;;;;16.88;2.35;;;22.60;80.70;;;;;;5072930;28;20198;-43
2022/07/26 11:28:00;;;;;;;7.82;1.83;;;22.80;79.60;;;;;;5070791;28;20118;-43
2022/07/26 11:30:27;;;;;;;19.85;2.65;;;22.80;78.40;;;;;;5072611;28;20094;-43
2022/07/26 11:32:54;;;;;;;8.55;1.80;;;22.80;78.30;;;;;;5069632;28;20445;-43
2022/07/26 11:35:22;;;;;;;8.55;1.70;;;22.80;79.20;;;;;;5050903;28;20444;-42
2022/07/26 11:37:53;;;;;;;9.70;1.95;;;22.90;78.00;;;;;;5051805;28;20128;-43
2022/07/26 11:40:35;;;;;;;11.70;1.70;;;22.90;77.30;;;;;;5032773;28;20084;-42
2022/07/26 11:43:01;;;;;;;8.15;1.77;;;22.80;76.80;;;;;;5032518;28;20224;-43
2022/07/26 11:45:28;;;;;;;8.68;1.88;;;22.70;77.90;;;;;;5032785;28;20085;-43
2022/07/26 11:47:57;;;;;;;7.68;1.60;;;22.60;76.30;;;;;;5032683;28;20135;-43
2022/07/26 11:50:25;;;;;;;12.05;1.90;;;22.40;77.60;;;;;;5040188;28;20097;-43
2022/07/26 11:52:52;;;;;;;14.00;1.90;;;22.40;76.30;;;;;;5058623;28;20037;-43
2022/07/26 11:55:26;;;;;;;7.13;1.70;;;22.40;77.10;;;;;;5052669;28;20060;-42
2022/07/26 11:57:52;;;;;;;10.38;1.98;;;22.60;77.20;;;;;;5052588;28;20048;-43
2022/07/26 12:00:19;;;;;;;8.40;1.83;;;22.80;76.50;;;;;;5052599;28;20080;-43
2022/07/26 12:02:46;;;;;;;7.78;1.50;;;23.00;75.40;;;;;;5053420;28;20076;-42
2022/07/26 12:05:14;;;;;;;10.35;1.80;;;23.00;75.20;;;;;;5072569;28;20127;-42
2022/07/26 12:07:54;;;;;;;6.35;1.60;;;23.10;75.40;;;;;;5072066;28;20516;-43
2022/07/26 12:10:21;;;;;;;9.15;1.73;;;23.20;75.00;;;;;;5072232;28;20044;-43
2022/07/26 12:12:48;;;;;;;8.30;1.75;;;23.20;74.30;;;;;;5056579;28;20128;-42
2022/07/26 12:15:15;;;;;;;10.13;1.75;;;23.30;74.60;;;;;;5059870;28;20472;-43
2022/07/26 12:17:59;;;;;;;4.55;1.00;;;23.50;74.80;;;;;;5072251;28;20361;-43
2022/07/26 12:20:26;;;;;;;6.88;1.50;;;23.60;73.60;;;;;;5076125;28;20075;-43
2022/07/26 12:22:56;;;;;;;7.15;1.40;;;23.70;74.10;;;;;;5074981;28;20143;-44
2022/07/26 12:25:26;;;;;;;5.82;2.00;;;23.90;73.80;;;;;;5073676;28;20396;-43
2022/07/26 12:27:53;;;;;;;6.40;1.48;;;24.10;73.00;;;;;;5034953;28;20049;-43
2022/07/26 12:30:20;;;;;;;8.13;1.85;;;24.10;71.30;;;;;;5051333;28;20536;-43
2022/07/26 12:32:50;;;;;;;8.27;1.50;;;24.10;71.50;;;;;;5044963;28;20048;-43
2022/07/26 12:35:24;;;;;;;10.25;1.65;;;24.20;71.30;;;;;;5068088;28;20068;-43
2022/07/26 12:37:52;;;;;;;7.57;1.38;;;24.20;70.20;;;;;;5057193;28;20492;-43
2022/07/26 12:40:21;;;;;;;4.25;1.15;;;24.20;69.70;;;;;;5054874;28;20099;-43
2022/07/26 12:42:54;;;;;;;6.53;1.95;;;24.20;70.50;;;;;;5056005;28;20080;-43
2022/07/26 12:45:22;;;;;;;7.95;1.40;;;24.20;70.60;;;;;;5054345;28;20067;-43
2022/07/26 12:47:50;;;;;;;6.13;1.48;;;24.20;69.60;;;;;;5055605;28;20132;-44
2022/07/26 12:50:18;;;;;;;6.03;1.20;;;24.10;69.00;;;;;;5065589;28;20436;-43